OIZI  Iran Shahr  Airport

Iranshahr, Iran

Add Bookmark
ICAO OIZI
Type Airport
Status Operational
Latitude
27° 14' 9" N
27.236099
Longitude
60° 43' 12" E
60.720001
Local (DST + 5) UTC (GMT + 4)
Feb 12, 2016 02:45 Feb 11, 2016 23:15
Sunrise-Sunset Local UTC
Begin Civil Twilight 05:41 02:11
Sunrise 06:05 02:35
Sunset 05:17 13:47
End Civil Twilight 05:41 14:11
VFR
VFR
MVFR
MVFR
IFR
IFR
LIFR
LIFR
Unknown
Unavailable

Current Weather

METAR Observed VFR
OIZI 112100Z 00000KT CAVOK 12/M09 Q1014 Thu, Feb 11, 2016 @ 21:00 UTC
(2 Hours, 15 Minutes ago)
Visual Flight Rules
Wind Visibility Conditions
Calm 10 km or more
  • No significant weather
Temperatures Readings Precipitation
Current Temp
12°C
54°F
Dewpoint
-9°C
16°F
Humidity 22%
Altimeter 29.94" Hg
Sea Level Pressure 1,014 mb
Field Elevation
591 m
1,939 ft
None Recorded
-
-

CheckWX.com is intended as a tool to help pilots better visualize weather data. It is not intended as a substitute for an official weather briefing obtained from a Flight Service Station. CheckWX.com does not meet the FAA requirements for an official pre-flight weather briefing. Therefore, it's important that pilots still call and obtain an official FSS pre-flight weather briefing.

© 2007-2016 CheckWX.com
23:15:40 UTC